Time;durP1;ratioP1;P1;durP2;ratioP2;P2;SDS_P1;SDS_P2;PMS_P1;PMS_P2;Temp;Humidity;BMP_temperature;BMP_pressure;BME280_temperature;BME280_humidity;BME280_pressure;Samples;Min_cycle;Max_cycle;Signal;HPM_P1;HPM_P2
2023/06/07 00:02:14;;;;;;;0.50;0.50;;;;;;;9.80;79.38;99611.81;5090440;28;20047;-79
2023/06/07 00:04:59;;;;;;;0.40;0.40;;;;;;;9.77;79.31;99613.09;5089159;28;20052;-80
2023/06/07 00:07:26;;;;;;;0.50;0.50;;;;;;;9.75;79.09;99605.25;5090290;28;20140;-80
2023/06/07 00:09:55;;;;;;;0.50;0.50;;;;;;;9.77;79.25;99607.72;5088940;28;20056;-80
2023/06/07 00:12:23;;;;;;;0.50;0.50;;;;;;;9.78;79.14;99606.69;5090586;28;20052;-79
2023/06/07 00:14:50;;;;;;;0.50;0.50;;;;;;;9.70;79.44;99605.09;5093630;28;20044;-80
2023/06/07 00:17:17;;;;;;;0.50;0.50;;;;;;;9.67;79.76;99608.25;5094253;28;20048;-80
2023/06/07 00:19:45;;;;;;;0.50;0.50;;;;;;;9.60;79.90;99612.06;5093867;28;20052;-79
2023/06/07 00:22:12;;;;;;;0.50;0.50;;;;;;;9.64;80.03;99618.63;5094101;28;20412;-79
2023/06/07 00:24:40;;;;;;;0.50;0.50;;;;;;;9.61;79.57;99608.31;5094422;28;20441;-80
2023/06/07 00:27:07;;;;;;;0.50;0.50;;;;;;;9.62;79.56;99616.19;5093155;28;20474;-80
2023/06/07 00:29:36;;;;;;;0.50;0.50;;;;;;;9.59;79.75;99610.41;5092604;28;20082;-80
2023/06/07 00:32:06;;;;;;;0.50;0.50;;;;;;;9.60;79.61;99618.28;5093834;28;20063;-81
2023/06/07 00:34:34;;;;;;;0.50;0.50;;;;;;;9.60;79.61;99618.28;5093941;28;20461;-81
2023/06/07 00:37:01;;;;;;;0.50;0.50;;;;;;;9.59;79.62;99615.78;5095043;28;20415;-81
2023/06/07 00:39:30;;;;;;;0.50;0.50;;;;;;;9.54;79.70;99611.91;5092514;28;20526;-79
2023/06/07 00:41:57;;;;;;;0.50;0.50;;;;;;;9.55;79.75;99615.44;5094284;28;20048;-80
2023/06/07 00:44:24;;;;;;;0.43;0.43;;;;;;;9.52;79.95;99613.16;5093825;28;20621;-80
2023/06/07 00:46:52;;;;;;;0.50;0.50;;;;;;;9.48;80.27;99620.06;5093860;28;20048;-80
2023/06/07 00:49:19;;;;;;;0.50;0.50;;;;;;;9.44;80.51;99622.34;5092288;28;20044;-81
2023/06/07 00:51:46;;;;;;;0.50;0.50;;;;;;;9.40;80.72;99618.47;5092681;28;20056;-81
2023/06/07 00:54:17;;;;;;;0.50;0.50;;;;;;;9.38;80.97;99615.16;5093883;28;20044;-80
2023/06/07 00:56:50;;;;;;;0.50;0.50;;;;;;;9.40;81.21;99615.78;5093195;28;20044;-82
2023/06/07 00:59:21;;;;;;;0.50;0.50;;;;;;;9.30;81.35;99612.75;5094040;28;20047;-81
2023/06/07 01:01:51;;;;;;;0.50;0.50;;;;;;;9.31;81.50;99626.00;5093632;28;20052;-80
2023/06/07 01:04:20;;;;;;;0.50;0.50;;;;;;;9.24;81.88;99619.88;5058740;28;20234;-79
2023/06/07 01:06:49;;;;;;;0.50;0.50;;;;;;;9.24;81.81;99622.56;5091601;28;20052;-79
2023/06/07 01:09:16;;;;;;;0.50;0.50;;;;;;;9.23;81.96;99626.28;5093624;28;20800;-80
2023/06/07 01:11:48;;;;;;;0.50;0.50;;;;;;;9.22;82.39;99629.22;5092903;28;20048;-80
2023/06/07 01:14:18;;;;;;;0.50;0.50;;;;;;;9.22;82.45;99631.91;5091874;28;20130;-80
2023/06/07 01:16:50;;;;;;;0.50;0.50;;;;;;;9.20;82.63;99625.91;5092835;28;20439;-80
2023/06/07 01:19:23;;;;;;;0.60;0.60;;;;;;;9.17;82.57;99626.34;5093107;28;20048;-81
2023/06/07 01:21:52;;;;;;;0.60;0.60;;;;;;;9.17;82.67;99629.88;5091712;28;20135;-80
2023/06/07 01:24:21;;;;;;;0.50;0.50;;;;;;;9.18;82.62;99620.72;5074947;28;20418;-80
2023/06/07 01:26:53;;;;;;;0.50;0.50;;;;;;;9.16;82.67;99616.59;5092311;28;20079;-79
2023/06/07 01:29:21;;;;;;;0.50;0.50;;;;;;;9.22;82.46;99626.50;5092874;28;20584;-80
2023/06/07 01:31:49;;;;;;;0.50;0.50;;;;;;;9.26;82.59;99619.63;5091473;28;20078;-81
2023/06/07 01:34:20;;;;;;;0.50;0.50;;;;;;;9.25;82.49;99612.59;5091557;28;20048;-80
2023/06/07 01:36:48;;;;;;;0.50;0.50;;;;;;;9.28;82.29;99618.34;5091894;28;20902;-81
2023/06/07 01:39:17;;;;;;;0.50;0.50;;;;;;;9.33;82.46;99620.41;5074863;28;20047;-80
2023/06/07 01:41:45;;;;;;;0.50;0.50;;;;;;;9.33;82.25;99613.13;5074584;28;20067;-80
2023/06/07 01:44:13;;;;;;;0.60;0.60;;;;;;;9.35;82.47;99614.81;5074647;28;20206;-80
2023/06/07 01:46:42;;;;;;;0.50;0.50;;;;;;;9.38;82.03;99609.78;5092363;28;20139;-80
2023/06/07 01:49:09;;;;;;;0.52;0.52;;;;;;;9.42;81.96;99618.22;5091308;28;20055;-80
2023/06/07 01:51:36;;;;;;;0.60;0.60;;;;;;;9.44;81.86;99618.84;5091112;28;20127;-79
2023/06/07 01:54:05;;;;;;;0.50;0.50;;;;;;;9.41;81.77;99613.91;5092386;28;20056;-80
2023/06/07 01:56:32;;;;;;;0.60;0.60;;;;;;;9.42;81.78;99619.06;5091073;28;20048;-79
2023/06/07 01:59:19;;;;;;;0.50;0.50;;;;;;;9.43;82.08;99623.41;5092523;28;20094;-80
2023/06/07 02:02:00;;;;;;;0.50;0.50;;;;;;;9.46;81.93;99622.13;5091127;28;20116;-80
2023/06/07 02:04:31;;;;;;;0.60;0.60;;;;;;;9.45;81.64;99615.13;5074517;28;20126;-80
2023/06/07 02:07:05;;;;;;;0.60;0.60;;;;;;;9.54;81.55;99625.38;5090710;28;20059;-80
2023/06/07 02:09:35;;;;;;;0.60;0.60;;;;;;;9.59;81.53;99622.00;5074013;28;20063;-80
2023/06/07 02:12:03;;;;;;;0.50;0.50;;;;;;;9.64;81.33;99614.06;5074486;28;20060;-80
2023/06/07 02:14:31;;;;;;;0.50;0.50;;;;;;;9.74;81.03;99614.38;5074282;28;20131;-78
2023/06/07 02:16:58;;;;;;;0.50;0.50;;;;;;;9.80;80.61;99617.22;5090793;28;20056;-81
2023/06/07 02:19:26;;;;;;;0.50;0.50;;;;;;;9.87;80.14;99618.78;5090802;28;20059;-79
2023/06/07 02:21:53;;;;;;;0.50;0.50;;;;;;;9.94;79.68;99614.16;5090597;28;20078;-81
2023/06/07 02:24:20;;;;;;;0.50;0.50;;;;;;;10.04;79.53;99618.19;5091992;28;20051;-81
2023/06/07 02:26:48;;;;;;;0.50;0.50;;;;;;;10.08;78.79;99624.81;5090118;28;20048;-80
2023/06/07 02:29:15;;;;;;;0.50;0.50;;;;;;;10.14;78.38;99613.09;5079068;28;20063;-81
2023/06/07 02:31:42;;;;;;;0.50;0.50;;;;;;;10.19;77.88;99614.06;5094100;28;20068;-81
2023/06/07 02:34:10;;;;;;;0.50;0.50;;;;;;;10.38;76.89;99608.66;5071348;28;20060;-79
2023/06/07 02:36:40;;;;;;;0.50;0.50;;;;;;;10.44;76.87;99615.03;5076143;28;20142;-80
2023/06/07 02:39:10;;;;;;;0.50;0.50;;;;;;;10.47;76.85;99618.09;5065798;28;20047;-80
2023/06/07 02:41:37;;;;;;;0.50;0.50;;;;;;;10.52;76.68;99614.69;5091205;28;20052;-79
2023/06/07 02:44:04;;;;;;;0.50;0.50;;;;;;;10.56;76.47;99605.09;5085391;28;20051;-79
2023/06/07 02:46:34;;;;;;;0.50;0.50;;;;;;;10.65;76.26;99609.09;5077431;28;20532;-80
2023/06/07 02:49:02;;;;;;;0.50;0.50;;;;;;;10.75;75.75;99595.88;5074599;28;20095;-79
2023/06/07 02:51:30;;;;;;;0.50;0.50;;;;;;;10.87;75.31;99605.88;5083791;28;20078;-80
2023/06/07 02:53:57;;;;;;;0.50;0.50;;;;;;;10.91;75.13;99597.06;5081419;28;20052;-81
2023/06/07 02:56:29;;;;;;;0.50;0.50;;;;;;;11.04;74.34;99618.47;5065181;28;20053;-78
2023/06/07 02:58:56;;;;;;;0.50;0.50;;;;;;;11.05;73.70;99616.59;5070862;28;20533;-81
2023/06/07 03:01:31;;;;;;;0.50;0.50;;;;;;;11.14;73.35;99617.06;5088985;28;20077;-81
2023/06/07 03:03:58;;;;;;;0.50;0.50;;;;;;;11.18;72.95;99607.44;5085482;28;20051;-81
2023/06/07 03:06:29;;;;;;;0.50;0.50;;;;;;;11.32;71.85;99608.03;5090708;28;20040;-84
2023/06/07 03:09:04;;;;;;;0.50;0.50;;;;;;;11.39;70.81;99609.56;5072747;28;20052;-81
2023/06/07 03:11:33;;;;;;;0.50;0.50;;;;;;;11.53;70.32;99615.56;5089298;28;20578;-81
2023/06/07 03:14:00;;;;;;;0.50;0.50;;;;;;;11.56;70.01;99615.09;5090908;28;20055;-82
2023/06/07 03:16:37;;;;;;;;;;;;;;;11.63;69.87;99615.78;5089895;28;20134;-81
2023/06/07 03:19:06;;;;;;;0.50;0.50;;;;;;;11.61;69.81;99612.50;5089650;28;19946;-81
2023/06/07 03:21:33;;;;;;;0.50;0.50;;;;;;;11.73;69.54;99614.38;5080010;28;20090;-81
2023/06/07 03:24:04;;;;;;;0.50;0.50;;;;;;;11.77;69.42;99610.13;5086706;28;20081;-81
2023/06/07 03:26:32;;;;;;;0.50;0.50;;;;;;;11.85;69.48;99613.31;5050294;28;20147;-81
2023/06/07 03:29:01;;;;;;;0.50;0.50;;;;;;;11.92;69.39;99624.00;5067964;28;20068;-80
2023/06/07 03:31:32;;;;;;;0.50;0.50;;;;;;;11.96;68.67;99618.97;5068976;28;20052;-81
2023/06/07 03:34:07;;;;;;;0.50;0.50;;;;;;;12.09;69.04;99621.41;5067875;28;20114;-82
2023/06/07 03:36:35;;;;;;;0.45;0.45;;;;;;;12.13;68.96;99620.69;5067628;28;20048;-82
2023/06/07 03:39:03;;;;;;;0.50;0.50;;;;;;;12.25;69.04;99612.50;5034590;28;20044;-81
2023/06/07 03:41:31;;;;;;;0.50;0.50;;;;;;;12.37;68.30;99626.00;5050909;28;20462;-80
2023/06/07 03:44:03;;;;;;;0.50;0.50;;;;;;;12.42;68.12;99622.59;5067880;28;20059;-81
2023/06/07 03:46:30;;;;;;;0.50;0.50;;;;;;;12.52;68.12;99615.47;5050666;28;20048;-81
2023/06/07 03:48:58;;;;;;;0.50;0.50;;;;;;;12.61;67.69;99615.06;5067057;28;20094;-81
2023/06/07 03:51:26;;;;;;;0.50;0.50;;;;;;;12.68;67.43;99615.75;5067771;28;20121;-81
2023/06/07 03:53:57;;;;;;;0.50;0.50;;;;;;;12.78;67.22;99621.34;5088956;28;20047;-82
2023/06/07 03:56:25;;;;;;;0.50;0.50;;;;;;;12.85;67.04;99619.31;5090291;28;20192;-81
2023/06/07 03:58:55;;;;;;;0.40;0.40;;;;;;;12.96;66.95;99612.16;5088409;28;20052;-81
2023/06/07 04:01:25;;;;;;;0.50;0.50;;;;;;;13.06;66.65;99616.94;5088696;28;20105;-82
2023/06/07 04:04:01;;;;;;;0.50;0.50;;;;;;;13.15;66.57;99604.63;5089100;28;20086;-81
2023/06/07 04:06:48;;;;;;;0.40;0.40;;;;;;;13.30;66.29;99612.22;5089727;28;20503;-81
2023/06/07 04:09:19;;;;;;;0.40;0.40;;;;;;;13.39;66.01;99616.97;5089957;28;20052;-81
2023/06/07 04:11:46;;;;;;;0.50;0.50;;;;;;;13.44;65.64;99613.50;5088862;28;20596;-81
2023/06/07 04:14:13;;;;;;;0.50;0.50;;;;;;;13.57;65.16;99613.19;5088489;28;20044;-81
2023/06/07 04:16:41;;;;;;;0.50;0.50;;;;;;;13.69;65.23;99621.19;5071604;28;20138;-81
2023/06/07 04:19:08;;;;;;;0.50;0.50;;;;;;;13.80;64.80;99623.00;5086590;28;20056;-82
2023/06/07 04:21:36;;;;;;;0.50;0.50;;;;;;;13.91;64.62;99617.69;5088232;28;20448;-80
2023/06/07 04:24:05;;;;;;;0.40;0.40;;;;;;;14.04;64.19;99623.56;5071940;28;20040;-81
2023/06/07 04:26:33;;;;;;;0.47;0.47;;;;;;;14.10;63.94;99610.88;5086259;28;20043;-80
2023/06/07 04:29:00;;;;;;;0.40;0.40;;;;;;;14.21;63.22;99620.78;5073049;28;20050;-82
2023/06/07 04:31:34;;;;;;;0.50;0.50;;;;;;;14.34;63.42;99622.28;5086727;28;20044;-83
2023/06/07 04:34:04;;;;;;;0.50;0.50;;;;;;;14.40;62.96;99604.16;5070672;28;20056;-81
2023/06/07 04:36:37;;;;;;;0.50;0.50;;;;;;;14.56;62.51;99611.44;5087631;28;20403;-80
2023/06/07 04:39:10;;;;;;;0.50;0.50;;;;;;;14.66;62.05;99608.81;5088598;28;20044;-80
2023/06/07 04:41:42;;;;;;;0.50;0.50;;;;;;;14.85;62.04;99605.72;5092949;28;20051;-81
2023/06/07 04:44:28;;;;;;;0.50;0.50;;;;;;;14.97;61.50;99609.09;4744571;28;10000791;-81
2023/06/07 04:47:09;;;;;;;0.40;0.40;;;;;;;15.15;60.72;99600.56;5095131;28;20059;-81
2023/06/07 04:49:40;;;;;;;0.40;0.40;;;;;;;15.26;60.08;99592.47;5065886;28;20067;-80
2023/06/07 04:52:13;;;;;;;0.50;0.50;;;;;;;15.42;60.03;99605.13;5085179;28;20649;-82
2023/06/07 04:54:46;;;;;;;0.47;0.47;;;;;;;15.54;59.86;99597.53;5078182;28;20514;-82
2023/06/07 04:57:18;;;;;;;0.40;0.40;;;;;;;15.65;59.00;99595.72;5071684;28;20071;-82
2023/06/07 04:59:49;;;;;;;0.50;0.50;;;;;;;15.79;58.34;99599.63;5065700;28;20535;-82
2023/06/07 05:02:22;;;;;;;0.40;0.40;;;;;;;15.88;58.01;99591.78;5068158;28;20052;-81
2023/06/07 05:04:52;;;;;;;0.40;0.40;;;;;;;15.92;57.05;99586.63;5085243;28;20052;-81
2023/06/07 05:07:20;;;;;;;0.40;0.40;;;;;;;16.00;56.28;99595.13;5076871;28;20253;-81
2023/06/07 05:09:51;;;;;;;0.40;0.40;;;;;;;16.07;56.88;99594.03;5071266;28;20132;-82
2023/06/07 05:12:36;;;;;;;0.32;0.32;;;;;;;16.19;56.32;99602.81;5089326;28;20047;-82
2023/06/07 05:15:05;;;;;;;0.40;0.40;;;;;;;16.31;56.08;99603.41;5072166;28;20106;-80
2023/06/07 05:17:36;;;;;;;0.40;0.40;;;;;;;16.42;55.71;99606.97;5081071;28;20052;-80
2023/06/07 05:20:10;;;;;;;0.40;0.40;;;;;;;16.51;55.45;99599.91;5091691;28;20135;-80
2023/06/07 05:22:47;;;;;;;0.40;0.40;;;;;;;16.65;54.85;99598.28;5058534;28;20555;-82
2023/06/07 05:25:15;;;;;;;0.40;0.40;;;;;;;16.72;54.13;99584.41;5092756;28;20121;-82
2023/06/07 05:27:44;;;;;;;0.40;0.40;;;;;;;16.63;53.77;99567.75;5091597;28;20130;-81
2023/06/07 05:30:20;;;;;;;0.40;0.40;;;;;;;16.74;53.55;99582.25;5108492;28;20429;-81
2023/06/07 05:32:48;;;;;;;0.35;0.35;;;;;;;16.84;52.81;99587.72;5091316;28;20072;-82
2023/06/07 05:35:29;;;;;;;0.40;0.40;;;;;;;16.81;51.90;99582.81;5087217;28;20419;-81
2023/06/07 05:37:56;;;;;;;0.40;0.40;;;;;;;16.98;51.83;99587.19;5071742;28;20059;-80
2023/06/07 05:40:23;;;;;;;0.40;0.40;;;;;;;17.09;51.68;99586.91;5072730;28;20048;-81
2023/06/07 05:42:51;;;;;;;0.40;0.40;;;;;;;17.26;51.29;99588.53;5070811;28;20055;-82
2023/06/07 05:45:19;;;;;;;0.40;0.40;;;;;;;17.32;51.43;99580.06;5071255;28;20068;-82
2023/06/07 05:47:55;;;;;;;0.30;0.30;;;;;;;17.43;51.69;99582.78;5054624;28;20530;-82
2023/06/07 05:50:23;;;;;;;0.40;0.40;;;;;;;17.56;51.83;99593.13;5070836;28;20062;-81
2023/06/07 05:52:56;;;;;;;0.35;0.35;;;;;;;17.67;51.35;99586.56;5061961;28;20048;-80
2023/06/07 05:55:31;;;;;;;0.40;0.40;;;;;;;17.73;51.32;99582.72;5092412;28;20094;-81
2023/06/07 05:58:00;;;;;;;0.40;0.40;;;;;;;17.85;51.23;99592.53;5092433;28;20382;-81
2023/06/07 06:00:28;;;;;;;0.30;0.30;;;;;;;17.89;51.04;99586.22;5093076;28;20143;-82
2023/06/07 06:02:56;;;;;;;0.40;0.40;;;;;;;18.13;49.96;99578.22;5092072;28;20498;-82
2023/06/07 06:05:27;;;;;;;0.35;0.35;;;;;;;18.17;48.63;99576.53;5090623;28;20093;-82
2023/06/07 06:07:56;;;;;;;0.30;0.30;;;;;;;18.14;48.50;99581.75;5083408;28;20048;-83
2023/06/07 06:10:25;;;;;;;0.30;0.30;;;;;;;18.27;46.90;99583.06;5087000;28;20048;-81
2023/06/07 06:12:53;;;;;;;0.35;0.35;;;;;;;18.36;46.16;99597.78;5092567;28;20044;-80
2023/06/07 06:15:20;;;;;;;0.40;0.40;;;;;;;18.28;46.04;99581.97;5090719;28;20044;-80
2023/06/07 06:17:51;;;;;;;0.30;0.30;;;;;;;18.42;45.92;99588.44;5090471;28;20109;-79
2023/06/07 06:20:18;;;;;;;0.40;0.40;;;;;;;18.50;45.31;99582.38;5072715;28;20047;-81
2023/06/07 06:22:45;;;;;;;0.30;0.30;;;;;;;18.57;43.08;99587.53;5072625;28;20139;-80
2023/06/07 06:27:59;;;;;;;0.30;0.30;;;;;;;18.49;43.33;99591.69;5078543;28;20052;-81
2023/06/07 06:30:45;;;;;;;0.30;0.30;;;;;;;18.53;43.58;99567.34;5073290;28;20047;-80
2023/06/07 06:33:12;;;;;;;0.30;0.30;;;;;;;18.59;43.36;99564.28;5080428;28;20053;-82
2023/06/07 06:35:40;;;;;;;0.30;0.30;;;;;;;18.67;43.17;99562.06;5070982;28;20044;-80
2023/06/07 06:38:11;;;;;;;0.30;0.30;;;;;;;18.77;43.06;99564.75;5071024;28;20040;-79
2023/06/07 06:40:39;;;;;;;0.40;0.40;;;;;;;18.80;42.60;99570.44;5071224;28;20414;-82
2023/06/07 06:43:06;;;;;;;0.30;0.30;;;;;;;18.73;42.47;99564.44;5078600;28;20101;-80
2023/06/07 06:45:39;;;;;;;0.40;0.40;;;;;;;18.68;43.26;99569.16;5072641;28;20537;-82
2023/06/07 06:48:09;;;;;;;0.30;0.30;;;;;;;18.73;43.00;99549.97;5075657;28;20135;-82
2023/06/07 06:50:36;;;;;;;0.40;0.40;;;;;;;18.83;42.48;99560.88;5076158;28;20177;-80
2023/06/07 06:53:05;;;;;;;0.40;0.40;;;;;;;18.88;42.33;99558.09;5084514;28;20056;-80
2023/06/07 06:55:32;;;;;;;0.40;0.40;;;;;;;18.99;42.43;99573.31;5086953;28;20044;-80
2023/06/07 06:57:59;;;;;;;0.30;0.30;;;;;;;19.10;42.03;99556.81;5085022;28;20521;-81
2023/06/07 07:00:32;;;;;;;0.40;0.40;;;;;;;19.15;41.92;99551.31;5084949;28;20147;-81
2023/06/07 07:03:03;;;;;;;0.35;0.35;;;;;;;19.10;42.23;99545.88;5087366;28;20105;-77
2023/06/07 07:05:31;;;;;;;0.30;0.30;;;;;;;19.15;42.15;99549.38;5084876;28;20052;-80
2023/06/07 07:07:59;;;;;;;0.30;0.30;;;;;;;19.28;41.81;99536.94;5060426;28;20064;-81
2023/06/07 07:10:28;;;;;;;0.30;0.30;;;;;;;19.44;41.21;99546.59;5075670;28;20048;-81
2023/06/07 07:12:58;;;;;;;0.40;0.40;;;;;;;19.27;40.91;99532.59;5079518;28;20514;-80
2023/06/07 07:15:27;;;;;;;0.40;0.40;;;;;;;19.39;40.64;99554.88;5082388;28;20143;-80
2023/06/07 07:17:54;;;;;;;0.40;0.40;;;;;;;19.35;40.86;99534.69;5088766;28;20040;-81
2023/06/07 07:20:22;;;;;;;0.30;0.30;;;;;;;19.49;41.04;99545.75;5074280;28;20114;-81
2023/06/07 07:22:50;;;;;;;0.40;0.40;;;;;;;19.58;40.54;99556.91;5069444;28;20053;-81
2023/06/07 07:25:17;;;;;;;0.30;0.30;;;;;;;19.49;40.85;99540.28;5070479;28;20051;-81
2023/06/07 07:27:45;;;;;;;0.30;0.30;;;;;;;19.60;40.60;99519.09;5071910;28;20075;-82
2023/06/07 07:30:12;;;;;;;0.30;0.30;;;;;;;19.69;39.95;99512.69;5068830;28;20052;-83
2023/06/07 07:32:40;;;;;;;0.30;0.30;;;;;;;19.75;39.91;99526.31;5069054;28;20075;-83
2023/06/07 07:35:16;;;;;;;0.40;0.40;;;;;;;19.83;40.03;99544.88;5068441;28;20548;-81
2023/06/07 07:37:47;;;;;;;0.40;0.40;;;;;;;20.13;39.83;99533.50;5085046;28;20048;-81
2023/06/07 07:40:14;;;;;;;0.40;0.40;;;;;;;20.29;38.63;99536.03;5069834;28;20072;-81
2023/06/07 07:42:42;;;;;;;0.30;0.30;;;;;;;20.23;39.23;99529.81;5069842;28;20049;-81
2023/06/07 07:45:10;;;;;;;0.40;0.40;;;;;;;20.32;39.00;99522.53;5085179;28;20059;-81
2023/06/07 07:47:37;;;;;;;0.40;0.40;;;;;;;20.63;38.10;99541.28;5069700;28;20064;-81
2023/06/07 07:50:11;;;;;;;0.30;0.30;;;;;;;20.30;38.54;99494.59;5084967;28;20763;-81
2023/06/07 07:52:38;;;;;;;0.50;0.50;;;;;;;20.84;38.35;99519.03;5071871;28;20044;-82
2023/06/07 07:55:07;;;;;;;0.50;0.50;;;;;;;21.35;36.98;99523.63;5072224;28;20040;-81
2023/06/07 07:57:34;;;;;;;0.50;0.50;;;;;;;21.54;36.91;99521.63;5089880;28;20052;-81
2023/06/07 08:00:04;;;;;;;0.50;0.50;;;;;;;21.27;35.90;99516.06;5089594;28;20056;-81
2023/06/07 08:02:39;;;;;;;0.50;0.50;;;;;;;21.53;35.85;99524.69;5088292;28;20506;-83
2023/06/07 08:05:08;;;;;;;0.50;0.50;;;;;;;21.69;35.66;99511.44;5089815;28;20487;-82
2023/06/07 08:07:39;;;;;;;0.40;0.40;;;;;;;21.73;35.39;99499.56;5077828;28;20098;-84
2023/06/07 08:10:08;;;;;;;0.50;0.50;;;;;;;21.94;35.96;99508.16;5088348;28;20568;-82
2023/06/07 08:12:35;;;;;;;0.50;0.50;;;;;;;21.70;36.51;99502.09;5055674;28;20494;-82
2023/06/07 08:15:03;;;;;;;0.30;0.30;;;;;;;21.46;35.49;99519.59;5088954;28;20157;-83
2023/06/07 08:17:33;;;;;;;0.50;0.50;;;;;;;21.12;35.89;99519.94;5089700;28;20044;-83
2023/06/07 08:20:04;;;;;;;0.50;0.50;;;;;;;21.76;35.51;99506.38;5089054;28;20411;-82
2023/06/07 08:22:32;;;;;;;0.40;0.40;;;;;;;22.05;34.52;99504.09;5071408;28;20524;-83
2023/06/07 08:25:00;;;;;;;0.50;0.50;;;;;;;21.92;34.88;99518.66;5089940;28;20048;-83
2023/06/07 08:27:29;;;;;;;0.30;0.30;;;;;;;21.61;34.93;99494.56;5089559;28;20040;-83
2023/06/07 08:29:58;;;;;;;0.40;0.40;;;;;;;21.47;34.90;99521.22;5089502;28;20068;-82
2023/06/07 08:32:27;;;;;;;0.50;0.50;;;;;;;21.68;34.86;99498.84;5088810;28;20054;-83
2023/06/07 08:34:55;;;;;;;0.50;0.50;;;;;;;22.33;34.35;99504.03;5091223;28;20060;-83
2023/06/07 08:37:22;;;;;;;0.50;0.50;;;;;;;22.87;33.41;99504.94;5075486;28;20054;-83
2023/06/07 08:39:50;;;;;;;0.50;0.50;;;;;;;23.05;33.40;99470.09;5076011;28;20052;-83
2023/06/07 08:42:17;;;;;;;0.50;0.50;;;;;;;23.40;32.23;99477.72;5075567;28;20506;-82
2023/06/07 08:44:45;;;;;;;0.60;0.60;;;;;;;24.01;31.54;99487.78;5075349;28;20125;-83
2023/06/07 08:47:15;;;;;;;0.30;0.30;;;;;;;23.31;31.69;99475.72;5092040;28;20052;-82
2023/06/07 08:49:46;;;;;;;0.30;0.30;;;;;;;22.37;32.62;99483.03;5091988;28;20048;-83
2023/06/07 08:52:15;;;;;;;0.30;0.30;;;;;;;21.77;34.10;99475.03;5091932;28;20079;-83
2023/06/07 08:54:46;;;;;;;0.30;0.30;;;;;;;21.64;34.21;99479.41;5093433;28;20475;-83
2023/06/07 08:57:17;;;;;;;0.40;0.40;;;;;;;21.61;34.38;99475.34;5091831;28;20052;-82
2023/06/07 08:59:50;;;;;;;;;;;;;;;21.81;34.80;99487.84;5093568;28;20065;-81
2023/06/07 09:02:19;;;;;;;0.50;0.50;;;;;;;21.47;34.68;99481.97;5091773;28;20046;-83
2023/06/07 09:04:47;;;;;;;0.70;0.70;;;;;;;22.89;32.59;99479.88;5092843;28;20056;-82
2023/06/07 09:07:16;;;;;;;0.70;0.70;;;;;;;23.78;31.75;99470.56;5091621;28;20047;-82
2023/06/07 09:09:44;;;;;;;0.30;0.30;;;;;;;23.38;31.18;99474.47;5074872;28;20055;-83
2023/06/07 09:12:14;;;;;;;0.30;0.30;;;;;;;22.96;31.40;99468.38;5091735;28;20056;-83
2023/06/07 09:14:44;;;;;;;0.30;0.30;;;;;;;22.32;33.03;99458.41;5091346;28;20107;-82
2023/06/07 09:17:11;;;;;;;0.30;0.30;;;;;;;21.95;34.24;99476.84;5091377;28;20576;-83
2023/06/07 09:19:41;;;;;;;0.60;0.60;;;;;;;22.93;32.57;99467.88;5092651;28;20793;-82
2023/06/07 09:22:17;;;;;;;0.57;0.57;;;;;;;23.30;31.76;99465.84;5089907;28;20094;-82
2023/06/07 09:24:44;;;;;;;;;;;;;;;23.76;31.03;99472.81;5042381;28;20058;-85
2023/06/07 09:27:13;;;;;;;0.60;0.60;;;;;;;23.85;30.94;99467.34;5090184;28;20065;-83
2023/06/07 09:29:42;;;;;;;0.60;0.60;;;;;;;24.14;30.77;99471.41;5073071;28;20060;-83
2023/06/07 09:32:18;;;;;;;0.60;0.60;;;;;;;24.02;30.74;99464.56;5072900;28;20150;-84
2023/06/07 09:34:46;;;;;;;0.60;0.60;;;;;;;24.41;30.46;99453.72;5072665;28;20071;-84
2023/06/07 09:37:20;;;;;;;0.30;0.30;;;;;;;25.18;29.24;99449.22;5070942;28;20058;-83
2023/06/07 09:39:51;;;;;;;0.30;0.30;;;;;;;24.58;29.61;99431.66;5069679;28;20396;-82
2023/06/07 09:42:18;;;;;;;0.20;0.20;;;;;;;23.47;30.92;99434.81;5069588;28;20258;-83
2023/06/07 09:44:46;;;;;;;0.22;0.22;;;;;;;22.49;31.97;99409.06;5035946;28;20052;-83
2023/06/07 09:47:21;;;;;;;0.30;0.30;;;;;;;22.56;32.06;99454.53;5052282;28;20660;-84
2023/06/07 09:49:54;;;;;;;0.70;0.70;;;;;;;23.73;30.52;99445.09;5069261;28;20048;-83
2023/06/07 09:52:23;;;;;;;0.70;0.70;;;;;;;24.51;29.08;99420.31;5053375;28;20057;-83
2023/06/07 09:54:53;;;;;;;0.50;0.50;;;;;;;25.48;28.54;99435.44;5053414;28;20458;-84
2023/06/07 09:57:32;;;;;;;0.60;0.60;;;;;;;25.07;28.74;99458.97;5071828;28;20051;-83
2023/06/07 10:00:16;;;;;;;0.60;0.60;;;;;;;25.73;28.24;99423.41;5070909;28;20107;-83
2023/06/07 10:02:48;;;;;;;0.60;0.60;;;;;;;26.09;27.58;99404.63;5082856;28;20502;-83
2023/06/07 10:05:21;;;;;;;0.50;0.50;;;;;;;26.47;27.31;99421.03;5092555;28;20640;-85
2023/06/07 10:07:58;;;;;;;0.20;0.20;;;;;;;24.94;29.20;99437.88;5092043;28;20052;-82
2023/06/07 10:10:27;;;;;;;0.20;0.20;;;;;;;23.81;30.54;99418.69;5090778;28;20154;-84
2023/06/07 10:13:04;;;;;;;0.20;0.20;;;;;;;22.90;31.72;99434.69;5091144;28;20409;-83
2023/06/07 10:15:34;;;;;;;0.70;0.70;;;;;;;24.59;29.86;99432.47;5090374;28;20449;-82
2023/06/07 10:18:16;;;;;;;0.20;0.20;;;;;;;24.15;29.90;99401.34;5089355;28;20617;-84
2023/06/07 10:21:01;;;;;;;0.30;0.30;;;;;;;23.15;31.76;99435.97;5065685;28;20053;-83
2023/06/07 10:23:35;;;;;;;;;;;;;;;22.60;31.82;99425.31;5080121;28;20052;-82
2023/06/07 10:26:47;;;;;;;0.70;0.70;;;;;;;23.90;30.42;99416.72;5076124;28;20371;-84
2023/06/07 10:29:22;;;;;;;0.60;0.60;;;;;;;25.36;28.47;99444.41;5079230;28;20395;-84
2023/06/07 10:32:01;;;;;;;0.60;0.60;;;;;;;26.09;27.33;99418.47;5073225;28;20086;-85
2023/06/07 10:34:28;;;;;;;0.52;0.52;;;;;;;26.25;27.65;99407.56;5070157;28;20072;-84
2023/06/07 10:37:02;;;;;;;0.20;0.20;;;;;;;25.32;28.41;99415.03;5058071;28;20493;-85
2023/06/07 10:39:30;;;;;;;0.20;0.20;;;;;;;23.64;30.72;99424.94;5081572;28;20070;-88
2023/06/07 10:41:57;;;;;;;0.30;0.30;;;;;;;22.98;31.77;99417.44;5071531;28;20044;-86
2023/06/07 10:44:25;;;;;;;0.70;0.70;;;;;;;23.49;31.05;99417.94;4727820;27;10000462;-86
2023/06/07 10:47:26;;;;;;;0.30;0.30;;;;;;;24.21;29.65;99392.59;5074466;28;20066;-88
2023/06/07 10:49:54;;;;;;;0.30;0.30;;;;;;;23.31;31.23;99397.81;5070864;28;20055;-86
2023/06/07 10:52:22;;;;;;;0.30;0.30;;;;;;;24.30;30.48;99387.03;5067235;28;20057;-86
2023/06/07 10:54:55;;;;;;;0.30;0.30;;;;;;;23.41;29.96;99377.44;5058742;28;20052;-86
2023/06/07 10:57:39;;;;;;;0.80;0.80;;;;;;;24.24;28.80;99404.91;5086725;28;20048;-87
2023/06/07 11:00:33;;;;;;;0.30;0.30;;;;;;;24.65;28.11;99401.59;5086114;28;20044;-86
2023/06/07 11:03:16;;;;;;;0.30;0.30;;;;;;;24.78;27.78;99397.03;5078312;28;20059;-87
2023/06/07 11:05:58;;;;;;;0.30;0.30;;;;;;;23.74;29.38;99389.66;5090333;28;20143;-87
2023/06/07 11:08:30;;;;;;;0.80;0.80;;;;;;;23.22;30.55;99373.00;5087935;28;20079;-84
2023/06/07 11:11:01;;;;;;;0.75;0.75;;;;;;;25.16;28.78;99368.63;5088966;28;20056;-87
2023/06/07 11:13:44;;;;;;;0.70;0.70;;;;;;;26.30;27.14;99366.66;5053921;28;20044;-84
2023/06/07 11:16:25;;;;;;;0.65;0.65;;;;;;;27.36;26.67;99367.09;5065122;28;20465;-88
2023/06/07 11:18:53;;;;;;;0.60;0.60;;;;;;;27.90;24.61;99369.53;5076398;28;20056;-88
2023/06/07 11:21:26;;;;;;;0.60;0.60;;;;;;;27.85;24.15;99362.31;5082271;28;20072;-87
2023/06/07 11:24:13;;;;;;;0.20;0.20;;;;;;;25.28;26.99;99348.59;5062822;28;20053;-86
2023/06/07 11:26:40;;;;;;;0.22;0.22;;;;;;;24.86;28.43;99382.41;5074975;28;20055;-86
2023/06/07 11:29:08;;;;;;;0.20;0.20;;;;;;;23.81;29.44;99355.31;5089733;28;20067;-87
2023/06/07 11:31:36;;;;;;;0.40;0.40;;;;;;;24.03;28.94;99346.88;5091626;28;20048;-86
2023/06/07 11:34:03;;;;;;;0.30;0.30;;;;;;;23.69;29.29;99336.63;5081213;28;20525;-86
2023/06/07 11:36:34;;;;;;;0.80;0.80;;;;;;;25.24;27.44;99340.16;5081060;28;20135;-87
2023/06/07 11:39:08;;;;;;;0.20;0.20;;;;;;;25.48;27.10;99322.16;5073292;28;20051;-86
2023/06/07 11:41:39;;;;;;;0.20;0.20;;;;;;;24.87;27.85;99323.28;5089249;28;20610;-86
2023/06/07 11:44:06;;;;;;;0.80;0.80;;;;;;;25.47;27.71;99324.13;5085583;28;20410;-88
2023/06/07 11:46:34;;;;;;;0.20;0.20;;;;;;;26.75;26.23;99331.88;5059144;28;20511;-87
2023/06/07 11:49:09;;;;;;;0.70;0.70;;;;;;;25.30;27.51;99322.28;5081415;28;20056;-85
2023/06/07 11:51:39;;;;;;;0.80;0.80;;;;;;;26.86;25.87;99337.75;5081593;28;20098;-87
2023/06/07 11:54:08;;;;;;;0.70;0.70;;;;;;;26.88;25.86;99335.44;5090366;28;20067;-83
2023/06/07 11:56:37;;;;;;;0.60;0.60;;;;;;;28.16;24.16;99338.59;5071342;28;20051;-86